createdAt,value
2018-07-05T00:00:11.616Z,19.87
2018-07-05T00:02:04.440Z,19.93
2018-07-05T00:03:04.329Z,19.90
2018-07-05T00:04:57.212Z,20.09
2018-07-05T00:05:57.106Z,20.00
2018-07-05T00:07:51.847Z,20.04
2018-07-05T00:08:50.357Z,20.09
2018-07-05T00:10:43.352Z,20.00
2018-07-05T00:11:43.100Z,20.14
2018-07-05T00:13:35.934Z,20.12
2018-07-05T00:14:35.858Z,20.11
2018-07-05T00:16:28.687Z,20.12
2018-07-05T00:17:28.597Z,19.96
2018-07-05T00:19:21.436Z,20.00
2018-07-05T00:20:21.362Z,19.97
2018-07-05T00:22:14.197Z,19.94
2018-07-05T00:23:14.080Z,19.94
2018-07-05T00:25:06.925Z,19.92
2018-07-05T00:26:06.832Z,19.97
2018-07-05T00:27:59.715Z,19.90
2018-07-05T00:28:59.589Z,19.99
2018-07-05T00:30:52.433Z,20.05
2018-07-05T00:31:52.364Z,20.05
2018-07-05T00:33:45.200Z,20.11
2018-07-05T00:34:45.088Z,20.12
2018-07-05T00:36:37.934Z,20.14
2018-07-05T00:37:37.831Z,20.11
2018-07-05T00:39:30.686Z,20.12
2018-07-05T00:40:30.582Z,20.14
2018-07-05T00:42:23.421Z,20.00
2018-07-05T00:43:23.332Z,20.05
2018-07-05T00:45:16.427Z,20.02
2018-07-05T00:46:16.073Z,20.04
2018-07-05T00:48:08.920Z,20.17
2018-07-05T00:49:08.926Z,20.12
2018-07-05T00:51:01.742Z,20.18
2018-07-05T00:52:01.582Z,20.23
2018-07-05T00:53:54.443Z,20.33
2018-07-05T00:54:54.330Z,20.19
2018-07-05T00:56:47.277Z,20.12
2018-07-05T00:57:47.161Z,20.18
2018-07-05T00:59:39.946Z,20.09
2018-07-05T01:00:39.826Z,20.14
2018-07-05T01:02:32.694Z,20.00
2018-07-05T01:03:32.573Z,19.96
2018-07-05T01:05:25.446Z,19.90
2018-07-05T01:06:25.375Z,19.94
2018-07-05T01:08:18.188Z,19.93
2018-07-05T01:09:18.074Z,20.04
2018-07-05T01:11:10.945Z,19.97
2018-07-05T01:12:10.894Z,19.94
2018-07-05T01:14:03.699Z,20.04
2018-07-05T01:15:03.572Z,20.00
2018-07-05T01:16:56.437Z,20.08
2018-07-05T01:17:56.320Z,20.11
2018-07-05T01:19:49.181Z,20.14
2018-07-05T01:20:49.090Z,20.11
2018-07-05T01:22:41.933Z,20.08
2018-07-05T01:23:41.820Z,20.09
2018-07-05T01:25:34.680Z,20.08
2018-07-05T01:26:34.574Z,19.92
2018-07-05T01:28:27.425Z,20.04
2018-07-05T01:29:27.323Z,20.07
2018-07-05T01:31:20.165Z,20.00
2018-07-05T01:32:20.067Z,19.97
2018-07-05T01:34:12.932Z,20.04
2018-07-05T01:35:12.821Z,20.00
2018-07-05T01:37:06.611Z,20.00
2018-07-05T01:38:06.492Z,20.02
2018-07-05T01:39:59.340Z,20.11
2018-07-05T01:40:59.264Z,19.96
2018-07-05T01:42:52.091Z,19.99
2018-07-05T01:43:51.988Z,20.05
2018-07-05T01:45:44.834Z,20.08
2018-07-05T01:46:44.753Z,19.90
2018-07-05T01:48:37.594Z,20.04
2018-07-05T01:49:37.488Z,19.96
2018-07-05T01:51:30.334Z,19.90
2018-07-05T01:52:30.271Z,19.89
2018-07-05T01:54:23.090Z,19.94
2018-07-05T01:55:22.992Z,19.92
2018-07-05T01:57:15.870Z,19.90
2018-07-05T01:58:15.755Z,19.97
2018-07-05T02:00:08.593Z,20.05
2018-07-05T02:01:08.492Z,19.94
2018-07-05T02:03:01.455Z,19.90
2018-07-05T02:04:01.363Z,19.93
2018-07-05T02:05:54.704Z,20.04
2018-07-05T02:06:54.649Z,19.89
2018-07-05T02:08:47.468Z,19.93
2018-07-05T02:09:47.480Z,19.94
2018-07-05T02:11:40.216Z,19.92
2018-07-05T02:12:40.159Z,19.93
2018-07-05T02:14:32.989Z,20.05
2018-07-05T02:15:32.854Z,20.00
2018-07-05T02:17:25.693Z,20.07
2018-07-05T02:18:25.601Z,20.09
2018-07-05T02:20:18.460Z,20.00
2018-07-05T02:21:18.341Z,20.00
2018-07-05T02:23:11.602Z,19.93
2018-07-05T02:24:11.544Z,19.92
2018-07-05T02:26:04.364Z,19.92
2018-07-05T02:27:04.255Z,19.82
2018-07-05T02:28:57.124Z,19.78
2018-07-05T02:29:57.017Z,19.74
2018-07-05T02:31:49.869Z,19.63
2018-07-05T02:32:49.758Z,19.62
2018-07-05T02:34:42.675Z,19.50
2018-07-05T02:35:42.507Z,19.56
2018-07-05T02:37:35.366Z,19.54
2018-07-05T02:38:35.276Z,19.47
2018-07-05T02:40:28.101Z,19.37
2018-07-05T02:41:28.065Z,19.35
2018-07-05T02:43:20.854Z,19.38
2018-07-05T02:44:20.767Z,19.26
2018-07-05T02:46:13.602Z,19.20
2018-07-05T02:47:13.499Z,19.27
2018-07-05T02:49:06.364Z,19.32
2018-07-05T02:50:06.272Z,19.26
2018-07-05T02:51:59.128Z,19.17
2018-07-05T02:52:59.001Z,19.20
2018-07-05T02:54:51.944Z,19.17
2018-07-05T02:55:51.769Z,19.20
2018-07-05T02:57:45.439Z,19.05
2018-07-05T02:58:45.319Z,19.09
2018-07-05T03:00:38.219Z,19.01
2018-07-05T03:01:38.089Z,18.96
2018-07-05T03:03:30.940Z,19.00
2018-07-05T03:04:30.835Z,18.93
2018-07-05T03:06:23.667Z,18.91
2018-07-05T03:07:23.622Z,18.85
2018-07-05T03:09:16.456Z,18.71
2018-07-05T03:10:16.341Z,18.74
2018-07-05T03:12:09.169Z,18.75
2018-07-05T03:13:09.080Z,18.74
2018-07-05T03:15:01.934Z,18.75
2018-07-05T03:16:01.851Z,18.93
2018-07-05T03:17:54.658Z,18.88
2018-07-05T03:18:54.567Z,18.83
2018-07-05T03:20:47.420Z,18.81
2018-07-05T03:21:47.327Z,18.75
2018-07-05T03:23:40.154Z,18.78
2018-07-05T03:24:40.081Z,18.70
2018-07-05T03:26:32.919Z,18.75
2018-07-05T03:27:32.817Z,18.71
2018-07-05T03:29:25.726Z,18.75
2018-07-05T03:30:25.574Z,18.66
2018-07-05T03:32:18.410Z,18.67
2018-07-05T03:33:18.337Z,18.71
2018-07-05T03:35:11.184Z,18.64
2018-07-05T03:36:11.060Z,18.64
2018-07-05T03:38:03.903Z,18.60
2018-07-05T03:39:03.818Z,18.51
2018-07-05T03:40:56.660Z,18.54
2018-07-05T03:41:56.560Z,18.52
2018-07-05T03:43:49.400Z,18.63
2018-07-05T03:44:49.312Z,18.56
2018-07-05T03:46:42.692Z,18.57
2018-07-05T03:47:42.472Z,18.70
2018-07-05T03:49:35.323Z,18.70
2018-07-05T03:50:35.234Z,18.76
2018-07-05T03:52:28.067Z,18.85
2018-07-05T03:53:27.972Z,18.76
2018-07-05T03:55:20.855Z,18.78
2018-07-05T03:56:20.726Z,18.82
2018-07-05T03:58:13.578Z,18.79
2018-07-05T03:59:13.529Z,18.81
2018-07-05T04:01:06.313Z,18.78
2018-07-05T04:02:06.266Z,18.79
2018-07-05T04:03:59.067Z,18.74
2018-07-05T04:04:58.990Z,18.71
2018-07-05T04:06:51.838Z,18.88
2018-07-05T04:07:51.735Z,18.86
2018-07-05T04:09:44.581Z,19.01
2018-07-05T04:10:44.549Z,19.04
2018-07-05T04:12:37.346Z,19.05
2018-07-05T04:13:37.242Z,19.09
2018-07-05T04:15:30.078Z,19.09
2018-07-05T04:16:29.976Z,19.13
2018-07-05T04:18:22.863Z,19.15
2018-07-05T04:19:23.731Z,19.04
2018-07-05T04:21:15.730Z,19.12
2018-07-05T04:22:15.488Z,19.19
2018-07-05T04:24:09.382Z,19.19
2018-07-05T04:25:09.175Z,19.15
2018-07-05T04:27:01.985Z,19.26
2018-07-05T04:28:01.886Z,19.24
2018-07-05T04:29:54.779Z,19.22
2018-07-05T04:30:54.636Z,19.20
2018-07-05T04:32:47.497Z,19.22
2018-07-05T04:33:47.397Z,19.20
2018-07-05T04:35:40.250Z,19.15
2018-07-05T04:36:40.138Z,19.20
2018-07-05T04:38:33.010Z,19.20
2018-07-05T04:39:32.902Z,19.24
2018-07-05T04:41:25.749Z,19.32
2018-07-05T04:42:25.639Z,19.27
2018-07-05T04:44:18.482Z,19.30
2018-07-05T04:45:18.396Z,19.27
2018-07-05T04:47:11.245Z,19.27
2018-07-05T04:48:11.129Z,19.35
2018-07-05T04:50:04.405Z,19.38
2018-07-05T04:51:04.317Z,19.30
2018-07-05T04:52:57.130Z,19.38
2018-07-05T04:53:57.043Z,19.35
2018-07-05T04:55:49.948Z,19.45
2018-07-05T04:56:49.813Z,19.38
2018-07-05T04:58:42.641Z,19.49
2018-07-05T04:59:42.542Z,19.54
2018-07-05T05:01:35.411Z,19.56
2018-07-05T05:02:35.288Z,19.54
2018-07-05T05:04:28.145Z,19.64
2018-07-05T05:05:28.050Z,19.63
2018-07-05T05:07:20.902Z,19.67
2018-07-05T05:08:20.790Z,19.74
2018-07-05T05:10:13.692Z,19.74
2018-07-05T05:11:13.581Z,19.77
2018-07-05T05:13:06.908Z,19.63
2018-07-05T05:14:06.812Z,19.59
2018-07-05T05:15:59.658Z,19.57
2018-07-05T05:16:59.551Z,19.57
2018-07-05T05:18:52.454Z,19.62
2018-07-05T05:19:52.313Z,19.68
2018-07-05T05:21:45.139Z,19.74
2018-07-05T05:22:45.076Z,19.74
2018-07-05T05:24:37.915Z,19.78
2018-07-05T05:25:37.801Z,19.79
2018-07-05T05:27:30.663Z,19.87
2018-07-05T05:28:30.580Z,19.87
2018-07-05T05:30:23.806Z,19.93
2018-07-05T05:31:23.718Z,19.89
2018-07-05T05:33:17.224Z,20.05
2018-07-05T05:34:16.469Z,20.05
2018-07-05T05:36:10.741Z,20.09
2018-07-05T05:37:10.656Z,20.09
2018-07-05T05:39:03.556Z,20.08
2018-07-05T05:40:03.407Z,20.12
2018-07-05T05:41:56.236Z,20.22
2018-07-05T05:42:56.142Z,20.12
2018-07-05T05:44:49.028Z,20.09
2018-07-05T05:45:48.888Z,20.12
2018-07-05T05:47:41.796Z,20.26
2018-07-05T05:48:41.666Z,20.33
2018-07-05T05:50:34.512Z,20.27
2018-07-05T05:51:34.387Z,20.32
2018-07-05T05:53:27.275Z,20.36
2018-07-05T05:54:27.137Z,20.39
2018-07-05T05:56:20.010Z,20.42
2018-07-05T05:57:19.926Z,20.44
2018-07-05T05:59:12.733Z,20.63
2018-07-05T06:00:12.641Z,20.56
2018-07-05T06:02:05.936Z,20.71
2018-07-05T06:03:05.800Z,20.64
2018-07-05T06:04:58.687Z,20.75
2018-07-05T06:05:58.544Z,20.79
2018-07-05T06:07:51.415Z,20.90
2018-07-05T06:08:51.320Z,20.93
2018-07-05T06:10:44.237Z,21.03
2018-07-05T06:11:44.052Z,21.05
2018-07-05T06:13:36.896Z,21.07
2018-07-05T06:14:36.792Z,21.07
2018-07-05T06:16:29.660Z,21.16
2018-07-05T06:17:29.545Z,21.20
2018-07-05T06:19:22.394Z,21.25
2018-07-05T06:20:22.294Z,21.25
2018-07-05T06:22:15.166Z,21.32
2018-07-05T06:23:15.092Z,21.38
2018-07-05T06:25:07.912Z,21.37
2018-07-05T06:26:07.793Z,21.44
2018-07-05T06:28:00.700Z,21.45
2018-07-05T06:29:00.567Z,21.40
2018-07-05T06:30:53.401Z,21.53
2018-07-05T06:31:53.319Z,21.53
2018-07-05T06:33:46.144Z,21.55
2018-07-05T06:34:46.066Z,21.56
2018-07-05T06:36:38.920Z,21.55
2018-07-05T06:37:38.792Z,21.58
2018-07-05T06:39:31.693Z,21.66
2018-07-05T06:40:31.548Z,21.73
2018-07-05T06:42:24.418Z,21.69
2018-07-05T06:43:24.308Z,21.78
2018-07-05T06:45:17.140Z,21.88
2018-07-05T06:46:17.042Z,21.88
2018-07-05T06:48:09.897Z,21.91
2018-07-05T06:49:09.794Z,21.91
2018-07-05T06:51:02.643Z,21.84
2018-07-05T06:52:02.545Z,21.84
2018-07-05T06:53:55.412Z,21.98
2018-07-05T06:54:55.293Z,21.94
2018-07-05T06:56:48.129Z,21.93
2018-07-05T06:57:48.047Z,22.01
2018-07-05T06:59:40.903Z,22.04
2018-07-05T07:00:40.826Z,22.07
2018-07-05T07:02:34.058Z,22.19
2018-07-05T07:03:33.958Z,22.21
2018-07-05T07:05:26.800Z,22.28
2018-07-05T07:06:26.707Z,22.33
2018-07-05T07:08:22.991Z,22.43
2018-07-05T07:09:22.819Z,22.44
2018-07-05T07:11:16.313Z,22.52
2018-07-05T07:12:16.214Z,22.55
2018-07-05T07:14:09.065Z,22.66
2018-07-05T07:15:08.943Z,22.77
2018-07-05T07:17:01.816Z,22.91
2018-07-05T07:18:01.719Z,22.91
2018-07-05T07:19:54.550Z,22.96
2018-07-05T07:20:54.440Z,23.04
2018-07-05T07:22:47.281Z,22.96
2018-07-05T07:23:47.197Z,22.96
2018-07-05T07:25:40.058Z,22.98
2018-07-05T07:26:39.935Z,23.04
2018-07-05T07:28:32.884Z,23.18
2018-07-05T07:29:32.719Z,23.25
2018-07-05T07:31:25.602Z,23.42
2018-07-05T07:32:25.443Z,23.39
2018-07-05T07:34:18.319Z,23.56
2018-07-05T07:35:18.190Z,23.66
2018-07-05T07:37:11.044Z,23.67
2018-07-05T07:38:10.945Z,23.71
2018-07-05T07:40:03.779Z,23.67
2018-07-05T07:41:03.686Z,23.69
2018-07-05T07:42:56.552Z,23.74
2018-07-05T07:43:56.442Z,23.70
2018-07-05T07:45:49.352Z,23.86
2018-07-05T07:46:49.202Z,23.91
2018-07-05T07:48:42.041Z,24.01
2018-07-05T07:49:41.934Z,24.01
2018-07-05T07:51:34.800Z,24.11
2018-07-05T07:52:34.693Z,24.07
2018-07-05T07:54:27.524Z,23.97
2018-07-05T07:55:27.469Z,24.01
2018-07-05T07:57:20.373Z,24.07
2018-07-05T07:58:20.250Z,24.26
2018-07-05T08:00:13.070Z,24.21
2018-07-05T08:01:12.970Z,24.43
2018-07-05T08:03:05.810Z,24.26
2018-07-05T08:04:05.692Z,24.38
2018-07-05T08:05:58.544Z,24.38
2018-07-05T08:06:58.519Z,24.41
2018-07-05T08:08:51.323Z,24.71
2018-07-05T08:09:51.184Z,24.70
2018-07-05T08:11:44.046Z,24.96
2018-07-05T08:12:43.931Z,25.00
2018-07-05T08:14:36.788Z,25.00
2018-07-05T08:15:36.681Z,25.12
2018-07-05T08:17:29.521Z,25.06
2018-07-05T08:18:29.501Z,25.12
2018-07-05T08:20:22.313Z,24.97
2018-07-05T08:21:22.186Z,24.90
2018-07-05T08:23:15.574Z,24.89
2018-07-05T08:24:15.458Z,24.93
2018-07-05T08:26:08.307Z,25.14
2018-07-05T08:27:08.230Z,25.22
2018-07-05T08:29:01.098Z,25.36
2018-07-05T08:30:02.457Z,25.43
2018-07-05T08:31:53.826Z,25.49
2018-07-05T08:32:53.691Z,25.46
2018-07-05T08:34:46.572Z,25.34
2018-07-05T08:35:46.448Z,25.36
2018-07-05T08:37:39.313Z,25.19
2018-07-05T08:38:39.192Z,25.33
2018-07-05T08:40:32.048Z,25.52
2018-07-05T08:41:31.952Z,25.40
2018-07-05T08:43:25.312Z,25.61
2018-07-05T08:44:25.219Z,25.63
2018-07-05T08:46:18.079Z,25.88
2018-07-05T08:47:17.956Z,25.89
2018-07-05T08:49:10.950Z,26.01
2018-07-05T08:50:10.835Z,26.01
2018-07-05T08:52:03.660Z,25.88
2018-07-05T08:53:03.589Z,25.92
2018-07-05T08:54:56.410Z,25.85
2018-07-05T08:55:56.366Z,26.07
2018-07-05T08:57:49.162Z,25.98
2018-07-05T08:58:49.063Z,26.01
2018-07-05T09:00:41.956Z,25.88
2018-07-05T09:01:41.817Z,25.88
2018-07-05T09:03:34.664Z,25.86
2018-07-05T09:04:34.574Z,25.88
2018-07-05T09:06:27.408Z,26.08
2018-07-05T09:07:27.327Z,26.00
2018-07-05T09:09:20.566Z,26.11
2018-07-05T09:10:20.474Z,26.16
2018-07-05T09:12:13.346Z,26.39
2018-07-05T09:13:13.245Z,26.51
2018-07-05T09:15:06.097Z,26.56
2018-07-05T09:16:05.982Z,26.65
2018-07-05T09:17:58.979Z,26.80
2018-07-05T09:18:58.724Z,26.67
2018-07-05T09:20:51.559Z,26.67
2018-07-05T09:21:51.476Z,26.71
2018-07-05T09:23:44.319Z,26.85
2018-07-05T09:24:44.224Z,26.89
2018-07-05T09:26:37.061Z,26.93
2018-07-05T09:27:36.986Z,26.94
2018-07-05T09:29:29.880Z,26.94
2018-07-05T09:30:29.713Z,26.98
2018-07-05T09:32:22.548Z,27.07
2018-07-05T09:33:22.473Z,27.04
2018-07-05T09:35:15.338Z,26.73
2018-07-05T09:36:15.227Z,26.58
2018-07-05T09:38:08.052Z,26.85
2018-07-05T09:39:07.973Z,27.00
2018-07-05T09:41:00.863Z,27.22
2018-07-05T09:42:00.746Z,27.03
2018-07-05T09:43:53.588Z,27.01
2018-07-05T09:44:53.466Z,27.26
2018-07-05T09:46:46.316Z,27.44
2018-07-05T09:47:46.214Z,27.61
2018-07-05T09:49:39.080Z,27.57
2018-07-05T09:50:39.024Z,27.63
2018-07-05T09:52:31.853Z,27.85
2018-07-05T09:53:31.712Z,28.01
2018-07-05T09:55:24.567Z,27.91
2018-07-05T09:56:24.472Z,27.90
2018-07-05T09:58:17.312Z,27.95
2018-07-05T09:59:17.216Z,27.87
2018-07-05T10:01:10.064Z,27.83
2018-07-05T10:02:10.018Z,27.70
2018-07-05T10:04:02.794Z,27.68
2018-07-05T10:05:02.709Z,27.64
2018-07-05T10:06:55.581Z,27.70
2018-07-05T10:07:55.496Z,27.66
2018-07-05T10:09:48.292Z,27.54
2018-07-05T10:10:48.207Z,27.68
2018-07-05T10:12:41.067Z,27.73
2018-07-05T10:13:41.179Z,27.58
2018-07-05T10:15:33.791Z,27.79
2018-07-05T10:16:33.700Z,27.68
2018-07-05T10:18:26.573Z,27.78
2018-07-05T10:19:26.503Z,27.87
2018-07-05T10:21:19.326Z,27.76
2018-07-05T10:22:19.215Z,27.95
2018-07-05T10:24:12.072Z,28.34
2018-07-05T10:25:11.957Z,28.27
2018-07-05T10:27:04.852Z,27.79
2018-07-05T10:28:04.725Z,27.78
2018-07-05T10:29:57.561Z,27.64
2018-07-05T10:30:57.457Z,27.49
2018-07-05T10:32:50.734Z,27.49
2018-07-05T10:33:50.621Z,27.45
2018-07-05T10:35:43.460Z,27.58
2018-07-05T10:36:43.364Z,27.73
2018-07-05T10:38:36.212Z,27.90
2018-07-05T10:39:36.149Z,28.03
2018-07-05T10:41:28.962Z,28.07
2018-07-05T10:42:28.878Z,28.00
2018-07-05T10:44:21.725Z,28.07
2018-07-05T10:45:21.612Z,28.06
2018-07-05T10:47:14.465Z,27.95
2018-07-05T10:48:14.366Z,27.82
2018-07-05T10:50:07.365Z,28.01
2018-07-05T10:51:07.247Z,28.07
2018-07-05T10:52:59.947Z,28.34
2018-07-05T10:53:59.866Z,28.32
2018-07-05T10:55:52.745Z,28.34
2018-07-05T10:56:52.632Z,28.42
2018-07-05T10:58:45.472Z,28.22
2018-07-05T10:59:45.368Z,28.17
2018-07-05T11:01:38.310Z,28.15
2018-07-05T11:02:38.214Z,28.30
2018-07-05T11:04:31.109Z,28.52
2018-07-05T11:05:31.068Z,28.59
2018-07-05T11:07:24.383Z,28.54
2018-07-05T11:08:24.222Z,28.57
2018-07-05T11:10:17.083Z,28.84
2018-07-05T11:11:16.981Z,29.02
2018-07-05T11:13:09.825Z,29.09
2018-07-05T11:14:09.746Z,29.13
2018-07-05T11:16:02.596Z,28.87
2018-07-05T11:17:02.483Z,28.86
2018-07-05T11:18:55.305Z,28.84
2018-07-05T11:19:55.226Z,29.03
2018-07-05T11:21:48.099Z,28.52
2018-07-05T11:22:47.984Z,28.28
2018-07-05T11:24:40.809Z,28.56
2018-07-05T11:25:40.755Z,28.83
2018-07-05T11:27:33.582Z,29.06
2018-07-05T11:28:33.479Z,29.13
2018-07-05T11:30:26.399Z,28.83
2018-07-05T11:31:26.231Z,28.86
2018-07-05T11:33:19.095Z,28.68
2018-07-05T11:34:18.971Z,28.71
2018-07-05T11:36:11.835Z,29.17
2018-07-05T11:37:11.720Z,29.21
2018-07-05T11:39:04.568Z,29.17
2018-07-05T11:40:04.475Z,29.15
2018-07-05T11:41:57.345Z,28.96
2018-07-05T11:42:57.224Z,29.06
2018-07-05T11:44:50.063Z,29.25
2018-07-05T11:45:49.989Z,28.98
2018-07-05T11:47:42.885Z,29.15
2018-07-05T11:48:42.722Z,29.39
2018-07-05T11:50:35.550Z,29.29
2018-07-05T11:51:35.536Z,29.47
2018-07-05T11:53:28.319Z,28.98
2018-07-05T11:54:28.218Z,28.93
2018-07-05T11:56:21.050Z,28.86
2018-07-05T11:57:20.976Z,28.71
2018-07-05T11:59:13.816Z,28.90
2018-07-05T12:00:13.742Z,28.98
2018-07-05T12:02:06.637Z,28.87
2018-07-05T12:03:06.489Z,28.53
2018-07-05T12:04:59.312Z,28.54
2018-07-05T12:05:59.214Z,28.86
2018-07-05T12:07:52.166Z,29.04
2018-07-05T12:08:52.071Z,29.24
2018-07-05T12:10:44.937Z,29.47
2018-07-05T12:11:44.828Z,29.40
2018-07-05T12:13:37.672Z,29.55
2018-07-05T12:14:37.569Z,29.71
2018-07-05T12:16:30.430Z,29.93
2018-07-05T12:17:30.321Z,29.96
2018-07-05T12:19:23.180Z,30.00
2018-07-05T12:20:23.071Z,29.81
2018-07-05T12:22:15.918Z,29.56
2018-07-05T12:23:15.813Z,29.47
2018-07-05T12:25:08.660Z,29.62
2018-07-05T12:26:08.567Z,29.54
2018-07-05T12:28:01.404Z,29.93
2018-07-05T12:29:01.340Z,30.15
2018-07-05T12:30:54.234Z,29.36
2018-07-05T12:31:54.087Z,29.06
2018-07-05T12:33:46.914Z,29.40
2018-07-05T12:34:46.829Z,29.52
2018-07-05T12:36:39.660Z,29.40
2018-07-05T12:37:39.563Z,29.12
2018-07-05T12:39:32.902Z,28.83
2018-07-05T12:40:32.832Z,28.90
2018-07-05T12:42:25.670Z,28.75
2018-07-05T12:43:26.089Z,28.89
2018-07-05T12:45:18.428Z,29.07
2018-07-05T12:46:18.325Z,29.33
2018-07-05T12:48:11.169Z,29.36
2018-07-05T12:49:11.071Z,29.49
2018-07-05T12:51:03.939Z,29.44
2018-07-05T12:52:03.837Z,29.37
2018-07-05T12:53:56.652Z,29.24
2018-07-05T12:54:56.577Z,29.12
2018-07-05T12:56:49.443Z,29.36
2018-07-05T12:57:49.324Z,29.50
2018-07-05T12:59:42.153Z,29.49
2018-07-05T13:00:42.074Z,29.47
2018-07-05T13:02:34.912Z,29.49
2018-07-05T13:03:34.836Z,29.41
2018-07-05T13:05:27.655Z,29.66
2018-07-05T13:06:27.598Z,29.41
2018-07-05T13:08:20.931Z,29.55
2018-07-05T13:09:20.835Z,29.59
2018-07-05T13:11:13.703Z,29.70
2018-07-05T13:12:13.579Z,29.81
2018-07-05T13:14:06.432Z,30.22
2018-07-05T13:15:06.343Z,30.29
2018-07-05T13:16:59.173Z,30.56
2018-07-05T13:17:59.081Z,30.51
2018-07-05T13:19:52.444Z,30.36
2018-07-05T13:20:52.338Z,30.26
2018-07-05T13:22:45.203Z,30.17
2018-07-05T13:23:45.090Z,30.43
2018-07-05T13:25:37.953Z,30.52
2018-07-05T13:26:37.861Z,30.59
2018-07-05T13:28:30.716Z,30.28
2018-07-05T13:29:30.626Z,30.17
2018-07-05T13:31:23.440Z,30.10
2018-07-05T13:32:23.393Z,30.08
2018-07-05T13:34:16.223Z,29.93
2018-07-05T13:35:16.810Z,29.66
2018-07-05T13:37:08.950Z,29.70
2018-07-05T13:38:08.859Z,29.77
2018-07-05T13:40:01.733Z,29.77
2018-07-05T13:41:01.594Z,29.78
2018-07-05T13:42:54.436Z,29.54
2018-07-05T13:43:54.340Z,29.74
2018-07-05T13:45:47.229Z,29.87
2018-07-05T13:46:47.146Z,29.43
2018-07-05T13:48:39.933Z,29.09
2018-07-05T13:49:39.862Z,29.06
2018-07-05T13:51:33.236Z,29.12
2018-07-05T13:52:33.138Z,29.02
2018-07-05T13:54:25.962Z,28.83
2018-07-05T13:55:25.854Z,28.90
2018-07-05T13:57:18.701Z,28.93
2018-07-05T13:58:18.615Z,28.84
2018-07-05T14:00:11.462Z,28.81
2018-07-05T14:01:11.373Z,28.80
2018-07-05T14:03:04.247Z,28.89
2018-07-05T14:04:04.121Z,28.98
2018-07-05T14:05:56.954Z,28.86
2018-07-05T14:06:56.847Z,28.98
2018-07-05T14:08:49.725Z,29.10
2018-07-05T14:09:49.607Z,29.21
2018-07-05T14:11:42.954Z,28.86
2018-07-05T14:12:42.867Z,28.66
2018-07-05T14:14:35.710Z,28.77
2018-07-05T14:15:35.616Z,28.57
2018-07-05T14:17:28.463Z,28.61
2018-07-05T14:18:28.358Z,28.65
2018-07-05T14:20:21.206Z,28.75
2018-07-05T14:21:21.118Z,28.65
2018-07-05T14:23:13.980Z,28.80
2018-07-05T14:24:13.862Z,28.89
2018-07-05T14:26:06.706Z,29.02
2018-07-05T14:27:06.611Z,29.25
2018-07-05T14:28:59.463Z,29.39
2018-07-05T14:29:59.362Z,29.41
2018-07-05T14:31:52.225Z,29.19
2018-07-05T14:32:52.117Z,29.25
2018-07-05T14:34:44.956Z,29.17
2018-07-05T14:35:44.863Z,29.22
2018-07-05T14:37:37.718Z,29.25
2018-07-05T14:38:37.635Z,29.10
2018-07-05T14:40:30.439Z,29.06
2018-07-05T14:41:30.376Z,28.93
2018-07-05T14:43:23.215Z,28.81
2018-07-05T14:44:23.102Z,28.80
2018-07-05T14:46:15.939Z,28.71
2018-07-05T14:47:15.884Z,28.79
2018-07-05T14:49:08.716Z,28.50
2018-07-05T14:50:08.610Z,28.37
2018-07-05T14:52:01.461Z,28.32
2018-07-05T14:53:01.353Z,28.34
2018-07-05T14:54:54.502Z,28.34
2018-07-05T14:55:54.141Z,28.34
2018-07-05T14:57:47.039Z,28.40
2018-07-05T14:58:46.915Z,28.44
2018-07-05T15:00:39.810Z,28.57
2018-07-05T15:01:39.757Z,28.57
2018-07-05T15:03:32.877Z,28.44
2018-07-05T15:04:32.485Z,28.46
2018-07-05T15:06:25.448Z,28.46
2018-07-05T15:07:25.486Z,28.56
2018-07-05T15:09:18.190Z,28.57
2018-07-05T15:10:17.979Z,28.53
2018-07-05T15:12:10.804Z,28.57
2018-07-05T15:13:10.706Z,28.53
2018-07-05T15:15:03.589Z,28.93
2018-07-05T15:16:03.455Z,29.06
2018-07-05T15:17:56.355Z,29.07
2018-07-05T15:18:56.227Z,29.03
2018-07-05T15:20:49.066Z,28.94
2018-07-05T15:21:48.995Z,29.06
2018-07-05T15:23:41.812Z,29.37
2018-07-05T15:24:41.703Z,29.36
2018-07-05T15:26:34.527Z,29.15
2018-07-05T15:27:34.472Z,28.84
2018-07-05T15:29:27.313Z,28.50
2018-07-05T15:30:27.208Z,28.34
2018-07-05T15:32:20.046Z,28.35
2018-07-05T15:33:19.944Z,28.35
2018-07-05T15:35:12.786Z,28.40
2018-07-05T15:36:12.709Z,28.37
2018-07-05T15:38:05.544Z,28.22
2018-07-05T15:39:05.446Z,28.32
2018-07-05T15:40:58.306Z,28.28
2018-07-05T15:41:58.207Z,28.47
2018-07-05T15:43:51.055Z,28.80
2018-07-05T15:44:50.948Z,28.96
2018-07-05T15:46:43.846Z,29.12
2018-07-05T15:47:43.705Z,29.41
2018-07-05T15:49:36.551Z,30.03
2018-07-05T15:50:36.455Z,30.39
2018-07-05T15:52:29.383Z,30.52
2018-07-05T15:53:29.305Z,29.95
2018-07-05T15:55:22.164Z,30.24
2018-07-05T15:56:22.105Z,30.07
2018-07-05T15:58:14.918Z,29.52
2018-07-05T15:59:14.797Z,29.18
2018-07-05T16:01:07.654Z,29.17
2018-07-05T16:02:07.542Z,29.18
2018-07-05T16:04:00.475Z,29.71
2018-07-05T16:05:00.307Z,30.08
2018-07-05T16:06:53.139Z,30.35
2018-07-05T16:07:53.054Z,30.15
2018-07-05T16:09:45.892Z,29.63
2018-07-05T16:10:45.878Z,29.52
2018-07-05T16:12:38.654Z,29.61
2018-07-05T16:13:38.545Z,29.87
2018-07-05T16:15:31.411Z,30.43
2018-07-05T16:16:31.312Z,30.32
2018-07-05T16:18:24.153Z,30.85
2018-07-05T16:19:24.128Z,31.27
2018-07-05T16:21:17.016Z,31.67
2018-07-05T16:22:16.795Z,31.74
2018-07-05T16:24:09.644Z,31.67
2018-07-05T16:25:09.579Z,31.42
2018-07-05T16:27:02.408Z,31.82
2018-07-05T16:28:02.300Z,31.59
2018-07-05T16:29:55.123Z,30.74
2018-07-05T16:30:55.040Z,30.55
2018-07-05T16:32:47.896Z,29.52
2018-07-05T16:33:47.815Z,29.25
2018-07-05T16:35:40.653Z,28.81
2018-07-05T16:36:40.544Z,28.66
2018-07-05T16:38:33.415Z,28.83
2018-07-05T16:39:33.296Z,29.04
2018-07-05T16:41:26.146Z,29.15
2018-07-05T16:42:26.122Z,29.54
2018-07-05T16:44:18.893Z,29.74
2018-07-05T16:45:18.810Z,29.98
2018-07-05T16:47:11.633Z,29.89
2018-07-05T16:48:11.540Z,29.49
2018-07-05T16:50:04.407Z,29.03
2018-07-05T16:51:04.288Z,29.00
2018-07-05T16:52:57.142Z,28.49
2018-07-05T16:53:57.043Z,28.46
2018-07-05T16:55:49.867Z,28.80
2018-07-05T16:56:49.799Z,28.64
2018-07-05T16:58:42.632Z,28.87
2018-07-05T16:59:42.552Z,28.96
2018-07-05T17:01:35.386Z,28.96
2018-07-05T17:02:35.288Z,29.21
2018-07-05T17:04:28.349Z,29.12
2018-07-05T17:05:28.054Z,29.41
2018-07-05T17:07:20.905Z,29.74
2018-07-05T17:08:20.799Z,30.13
2018-07-05T17:10:13.634Z,30.26
2018-07-05T17:11:13.566Z,30.37
2018-07-05T17:13:06.406Z,30.26
2018-07-05T17:14:06.397Z,30.39
2018-07-05T17:15:59.676Z,30.26
2018-07-05T17:16:59.063Z,30.55
2018-07-05T17:18:51.923Z,30.03
2018-07-05T17:19:51.813Z,29.61
2018-07-05T17:21:44.644Z,29.73
2018-07-05T17:22:44.538Z,29.49
2018-07-05T17:24:37.406Z,29.63
2018-07-05T17:25:37.312Z,29.56
2018-07-05T17:27:30.134Z,29.63
2018-07-05T17:28:30.039Z,29.43
2018-07-05T17:30:22.878Z,30.20
2018-07-05T17:31:22.815Z,30.07
2018-07-05T17:33:15.608Z,29.87
2018-07-05T17:34:15.532Z,29.95
2018-07-05T17:36:08.411Z,30.52
2018-07-05T17:37:08.285Z,30.77
2018-07-05T17:39:01.113Z,30.92
2018-07-05T17:40:01.065Z,30.95
2018-07-05T17:41:53.893Z,30.89
2018-07-05T17:42:53.795Z,30.64
2018-07-05T17:44:46.613Z,30.03
2018-07-05T17:45:46.529Z,30.07
2018-07-05T17:47:39.390Z,29.92
2018-07-05T17:48:39.302Z,29.93
2018-07-05T17:50:32.125Z,29.54
2018-07-05T17:51:32.052Z,29.55
2018-07-05T17:53:24.895Z,29.73
2018-07-05T17:54:24.783Z,29.62
2018-07-05T17:56:17.625Z,29.78
2018-07-05T17:57:17.532Z,29.80
2018-07-05T17:59:10.366Z,29.66
2018-07-05T18:00:10.342Z,29.44
2018-07-05T18:02:03.145Z,30.11
2018-07-05T18:03:03.048Z,30.17
2018-07-05T18:04:55.861Z,30.21
2018-07-05T18:05:55.779Z,29.77
2018-07-05T18:07:48.647Z,29.62
2018-07-05T18:08:48.543Z,29.77
2018-07-05T18:10:41.358Z,29.47
2018-07-05T18:11:41.279Z,29.22
2018-07-05T18:13:34.231Z,28.79
2018-07-05T18:14:34.164Z,28.32
2018-07-05T18:16:26.965Z,27.38
2018-07-05T18:17:26.895Z,27.12
2018-07-05T18:19:19.741Z,26.82
2018-07-05T18:20:19.675Z,26.78
2018-07-05T18:22:12.462Z,26.70
2018-07-05T18:23:12.388Z,26.71
2018-07-05T18:25:05.231Z,26.64
2018-07-05T18:26:05.130Z,26.42
2018-07-05T18:27:58.093Z,26.43
2018-07-05T18:28:57.874Z,26.31
2018-07-05T18:30:51.649Z,26.31
2018-07-05T18:31:50.620Z,26.19